sensor_id;sensor_type;location;lat;lon;timestamp;temperature;humidity
15288;DHT22;7745;48.708;9.026;2023-05-10T00:00:29;13.80;99.90
15288;DHT22;7745;48.708;9.026;2023-05-10T00:02:56;13.70;99.90
15288;DHT22;7745;48.708;9.026;2023-05-10T00:05:23;13.50;99.90
15288;DHT22;7745;48.708;9.026;2023-05-10T00:07:50;13.60;99.90
15288;DHT22;7745;48.708;9.026;2023-05-10T00:10:17;13.30;99.90
15288;DHT22;7745;48.708;9.026;2023-05-10T00:12:45;13.20;99.90
15288;DHT22;7745;48.708;9.026;2023-05-10T00:15:11;13.20;99.90
15288;DHT22;7745;48.708;9.026;2023-05-10T00:17:39;13.10;99.90
15288;DHT22;7745;48.708;9.026;2023-05-10T00:20:06;13.10;99.90
15288;DHT22;7745;48.708;9.026;2023-05-10T00:22:33;13.00;99.90
15288;DHT22;7745;48.708;9.026;2023-05-10T00:25:01;13.00;99.90
15288;DHT22;7745;48.708;9.026;2023-05-10T00:27:27;13.00;99.90
15288;DHT22;7745;48.708;9.026;2023-05-10T00:29:55;13.00;99.90
15288;DHT22;7745;48.708;9.026;2023-05-10T00:32:22;12.90;99.90
15288;DHT22;7745;48.708;9.026;2023-05-10T00:34:49;12.90;99.90
15288;DHT22;7745;48.708;9.026;2023-05-10T00:37:16;12.90;99.90
15288;DHT22;7745;48.708;9.026;2023-05-10T00:39:43;13.00;99.90
15288;DHT22;7745;48.708;9.026;2023-05-10T00:42:09;13.00;99.90
15288;DHT22;7745;48.708;9.026;2023-05-10T00:44:36;12.90;99.90
15288;DHT22;7745;48.708;9.026;2023-05-10T00:47:05;12.90;99.90
15288;DHT22;7745;48.708;9.026;2023-05-10T00:49:32;12.80;99.90
15288;DHT22;7745;48.708;9.026;2023-05-10T00:51:59;12.80;99.90
15288;DHT22;7745;48.708;9.026;2023-05-10T00:54:27;12.90;99.90
15288;DHT22;7745;48.708;9.026;2023-05-10T00:56:54;12.90;99.90
15288;DHT22;7745;48.708;9.026;2023-05-10T00:59:22;12.90;99.90
15288;DHT22;7745;48.708;9.026;2023-05-10T01:01:49;12.90;99.90
15288;DHT22;7745;48.708;9.026;2023-05-10T01:04:18;12.90;99.90
15288;DHT22;7745;48.708;9.026;2023-05-10T01:06:51;12.90;99.90
15288;DHT22;7745;48.708;9.026;2023-05-10T01:09:18;12.80;99.90
15288;DHT22;7745;48.708;9.026;2023-05-10T01:11:45;12.90;99.90
15288;DHT22;7745;48.708;9.026;2023-05-10T01:14:12;12.80;99.90
15288;DHT22;7745;48.708;9.026;2023-05-10T01:16:40;12.80;99.90
15288;DHT22;7745;48.708;9.026;2023-05-10T01:19:12;12.80;99.90
15288;DHT22;7745;48.708;9.026;2023-05-10T01:21:49;12.80;99.90
15288;DHT22;7745;48.708;9.026;2023-05-10T01:24:46;12.80;99.90
15288;DHT22;7745;48.708;9.026;2023-05-10T01:27:30;12.80;99.90
15288;DHT22;7745;48.708;9.026;2023-05-10T01:30:35;12.80;99.90
15288;DHT22;7745;48.708;9.026;2023-05-10T01:33:11;12.70;99.90
15288;DHT22;7745;48.708;9.026;2023-05-10T01:35:45;12.80;99.90
15288;DHT22;7745;48.708;9.026;2023-05-10T01:38:17;12.70;99.90
15288;DHT22;7745;48.708;9.026;2023-05-10T01:40:56;12.70;99.90
15288;DHT22;7745;48.708;9.026;2023-05-10T01:43:30;12.70;99.90
15288;DHT22;7745;48.708;9.026;2023-05-10T01:46:02;12.80;99.90
15288;DHT22;7745;48.708;9.026;2023-05-10T01:48:38;12.80;99.90
15288;DHT22;7745;48.708;9.026;2023-05-10T01:51:06;12.80;99.90
15288;DHT22;7745;48.708;9.026;2023-05-10T01:53:35;12.80;99.90
15288;DHT22;7745;48.708;9.026;2023-05-10T01:56:04;12.80;99.90
15288;DHT22;7745;48.708;9.026;2023-05-10T01:58:32;12.80;99.90
15288;DHT22;7745;48.708;9.026;2023-05-10T02:01:03;12.80;99.90
15288;DHT22;7745;48.708;9.026;2023-05-10T02:03:32;12.80;99.90
15288;DHT22;7745;48.708;9.026;2023-05-10T02:06:03;12.80;99.90
15288;DHT22;7745;48.708;9.026;2023-05-10T02:08:33;12.70;99.90
15288;DHT22;7745;48.708;9.026;2023-05-10T02:11:03;12.70;99.90
15288;DHT22;7745;48.708;9.026;2023-05-10T02:13:32;12.90;99.90
15288;DHT22;7745;48.708;9.026;2023-05-10T02:16:01;12.60;99.90
15288;DHT22;7745;48.708;9.026;2023-05-10T02:18:29;12.70;99.90
15288;DHT22;7745;48.708;9.026;2023-05-10T02:20:58;12.70;99.90
15288;DHT22;7745;48.708;9.026;2023-05-10T02:23:27;12.60;99.90
15288;DHT22;7745;48.708;9.026;2023-05-10T02:25:55;12.60;99.90
15288;DHT22;7745;48.708;9.026;2023-05-10T02:28:23;12.60;99.90
15288;DHT22;7745;48.708;9.026;2023-05-10T02:30:52;12.60;99.90
15288;DHT22;7745;48.708;9.026;2023-05-10T02:33:20;12.60;99.90
15288;DHT22;7745;48.708;9.026;2023-05-10T02:35:48;12.60;99.90
15288;DHT22;7745;48.708;9.026;2023-05-10T02:38:15;12.50;99.90
15288;DHT22;7745;48.708;9.026;2023-05-10T02:40:46;12.50;99.90
15288;DHT22;7745;48.708;9.026;2023-05-10T02:43:16;12.50;99.90
15288;DHT22;7745;48.708;9.026;2023-05-10T02:45:43;12.50;99.90
15288;DHT22;7745;48.708;9.026;2023-05-10T02:48:13;12.50;99.90
15288;DHT22;7745;48.708;9.026;2023-05-10T02:50:43;12.50;99.90
15288;DHT22;7745;48.708;9.026;2023-05-10T02:53:15;12.50;99.90
15288;DHT22;7745;48.708;9.026;2023-05-10T02:55:48;12.50;99.90
15288;DHT22;7745;48.708;9.026;2023-05-10T02:58:15;12.50;99.90
15288;DHT22;7745;48.708;9.026;2023-05-10T03:00:44;12.60;99.90
15288;DHT22;7745;48.708;9.026;2023-05-10T03:03:12;12.60;99.90
15288;DHT22;7745;48.708;9.026;2023-05-10T03:05:39;12.60;99.90
15288;DHT22;7745;48.708;9.026;2023-05-10T03:08:06;12.60;99.90
15288;DHT22;7745;48.708;9.026;2023-05-10T03:10:36;12.60;99.90
15288;DHT22;7745;48.708;9.026;2023-05-10T03:13:15;12.70;99.90
15288;DHT22;7745;48.708;9.026;2023-05-10T03:15:49;12.60;99.90
15288;DHT22;7745;48.708;9.026;2023-05-10T03:18:22;12.70;99.90
15288;DHT22;7745;48.708;9.026;2023-05-10T03:20:51;12.70;99.90
15288;DHT22;7745;48.708;9.026;2023-05-10T03:23:27;12.70;99.90
15288;DHT22;7745;48.708;9.026;2023-05-10T03:25:56;12.70;99.90
15288;DHT22;7745;48.708;9.026;2023-05-10T03:28:26;12.60;99.90
15288;DHT22;7745;48.708;9.026;2023-05-10T03:30:53;12.70;99.90
15288;DHT22;7745;48.708;9.026;2023-05-10T03:33:20;12.70;99.90
15288;DHT22;7745;48.708;9.026;2023-05-10T03:35:47;12.70;99.90
15288;DHT22;7745;48.708;9.026;2023-05-10T03:38:14;12.70;99.90
15288;DHT22;7745;48.708;9.026;2023-05-10T03:40:41;12.70;99.90
15288;DHT22;7745;48.708;9.026;2023-05-10T03:43:08;12.70;99.90
15288;DHT22;7745;48.708;9.026;2023-05-10T03:45:36;12.70;99.90
15288;DHT22;7745;48.708;9.026;2023-05-10T03:48:03;12.60;99.90
15288;DHT22;7745;48.708;9.026;2023-05-10T03:50:30;12.70;99.90
15288;DHT22;7745;48.708;9.026;2023-05-10T03:52:57;12.60;99.90
15288;DHT22;7745;48.708;9.026;2023-05-10T03:55:24;12.60;99.90
15288;DHT22;7745;48.708;9.026;2023-05-10T03:57:50;12.50;99.90
15288;DHT22;7745;48.708;9.026;2023-05-10T04:00:19;12.70;99.90
15288;DHT22;7745;48.708;9.026;2023-05-10T04:02:47;12.40;99.90
15288;DHT22;7745;48.708;9.026;2023-05-10T04:05:14;12.40;99.90
15288;DHT22;7745;48.708;9.026;2023-05-10T04:07:41;12.40;99.90
15288;DHT22;7745;48.708;9.026;2023-05-10T04:10:09;12.40;99.90
15288;DHT22;7745;48.708;9.026;2023-05-10T04:12:36;12.40;99.90
15288;DHT22;7745;48.708;9.026;2023-05-10T04:15:04;12.40;99.90
15288;DHT22;7745;48.708;9.026;2023-05-10T04:17:31;12.40;99.90
15288;DHT22;7745;48.708;9.026;2023-05-10T04:20:00;12.50;99.90
15288;DHT22;7745;48.708;9.026;2023-05-10T04:22:27;12.40;99.90
15288;DHT22;7745;48.708;9.026;2023-05-10T04:24:54;12.50;99.90
15288;DHT22;7745;48.708;9.026;2023-05-10T04:27:21;12.50;99.90
15288;DHT22;7745;48.708;9.026;2023-05-10T04:29:48;12.50;99.90
15288;DHT22;7745;48.708;9.026;2023-05-10T04:32:15;12.50;99.90
15288;DHT22;7745;48.708;9.026;2023-05-10T04:34:42;12.90;99.90
15288;DHT22;7745;48.708;9.026;2023-05-10T04:37:10;12.50;99.90
15288;DHT22;7745;48.708;9.026;2023-05-10T04:39:37;12.50;99.90
15288;DHT22;7745;48.708;9.026;2023-05-10T04:42:04;12.50;99.90
15288;DHT22;7745;48.708;9.026;2023-05-10T04:44:31;12.50;99.90
15288;DHT22;7745;48.708;9.026;2023-05-10T04:46:59;12.50;99.90
15288;DHT22;7745;48.708;9.026;2023-05-10T04:49:26;12.60;99.90
15288;DHT22;7745;48.708;9.026;2023-05-10T04:51:53;12.60;99.90
15288;DHT22;7745;48.708;9.026;2023-05-10T04:54:21;12.60;99.90
15288;DHT22;7745;48.708;9.026;2023-05-10T04:56:48;12.70;99.90
15288;DHT22;7745;48.708;9.026;2023-05-10T04:59:14;12.70;99.90
15288;DHT22;7745;48.708;9.026;2023-05-10T05:01:41;12.70;99.90
15288;DHT22;7745;48.708;9.026;2023-05-10T05:04:08;12.70;99.90
15288;DHT22;7745;48.708;9.026;2023-05-10T05:06:35;12.80;99.90
15288;DHT22;7745;48.708;9.026;2023-05-10T05:09:02;12.80;99.90
15288;DHT22;7745;48.708;9.026;2023-05-10T05:11:30;12.80;99.90
15288;DHT22;7745;48.708;9.026;2023-05-10T05:13:57;12.80;99.90
15288;DHT22;7745;48.708;9.026;2023-05-10T05:16:24;12.90;99.90
15288;DHT22;7745;48.708;9.026;2023-05-10T05:18:51;12.90;99.90
15288;DHT22;7745;48.708;9.026;2023-05-10T05:21:19;12.90;99.90
15288;DHT22;7745;48.708;9.026;2023-05-10T05:23:47;12.90;99.90
15288;DHT22;7745;48.708;9.026;2023-05-10T05:26:14;12.90;99.90
15288;DHT22;7745;48.708;9.026;2023-05-10T05:28:42;12.90;99.90
15288;DHT22;7745;48.708;9.026;2023-05-10T05:31:09;12.90;99.90
15288;DHT22;7745;48.708;9.026;2023-05-10T05:33:37;12.90;99.90
15288;DHT22;7745;48.708;9.026;2023-05-10T05:36:04;12.90;99.90
15288;DHT22;7745;48.708;9.026;2023-05-10T05:38:31;13.00;99.90
15288;DHT22;7745;48.708;9.026;2023-05-10T05:40:58;13.00;99.90
15288;DHT22;7745;48.708;9.026;2023-05-10T05:43:25;13.10;99.90
15288;DHT22;7745;48.708;9.026;2023-05-10T05:46:01;13.10;99.90
15288;DHT22;7745;48.708;9.026;2023-05-10T05:48:29;13.10;99.90
15288;DHT22;7745;48.708;9.026;2023-05-10T05:50:56;13.20;99.90
15288;DHT22;7745;48.708;9.026;2023-05-10T05:53:23;13.10;99.90
15288;DHT22;7745;48.708;9.026;2023-05-10T05:55:54;13.20;99.90
15288;DHT22;7745;48.708;9.026;2023-05-10T05:58:21;13.30;99.90
15288;DHT22;7745;48.708;9.026;2023-05-10T06:00:48;13.30;99.90
15288;DHT22;7745;48.708;9.026;2023-05-10T06:03:17;13.40;99.90
15288;DHT22;7745;48.708;9.026;2023-05-10T06:05:44;13.40;99.90
15288;DHT22;7745;48.708;9.026;2023-05-10T06:08:11;13.50;99.90
15288;DHT22;7745;48.708;9.026;2023-05-10T06:10:37;13.50;99.90
15288;DHT22;7745;48.708;9.026;2023-05-10T06:13:04;13.50;99.90
15288;DHT22;7745;48.708;9.026;2023-05-10T06:15:31;13.60;99.90
15288;DHT22;7745;48.708;9.026;2023-05-10T06:17:58;13.50;99.90
15288;DHT22;7745;48.708;9.026;2023-05-10T06:20:27;13.40;99.90
15288;DHT22;7745;48.708;9.026;2023-05-10T06:22:53;13.30;99.90
15288;DHT22;7745;48.708;9.026;2023-05-10T06:25:20;13.30;99.90
15288;DHT22;7745;48.708;9.026;2023-05-10T06:27:47;13.30;99.90
15288;DHT22;7745;48.708;9.026;2023-05-10T06:30:14;13.40;99.90
15288;DHT22;7745;48.708;9.026;2023-05-10T06:32:41;13.40;99.90
15288;DHT22;7745;48.708;9.026;2023-05-10T06:35:09;13.40;99.90
15288;DHT22;7745;48.708;9.026;2023-05-10T06:37:37;13.40;99.90
15288;DHT22;7745;48.708;9.026;2023-05-10T06:40:06;13.40;99.90
15288;DHT22;7745;48.708;9.026;2023-05-10T06:42:33;13.30;99.90
15288;DHT22;7745;48.708;9.026;2023-05-10T06:44:59;13.30;99.90
15288;DHT22;7745;48.708;9.026;2023-05-10T06:47:26;13.30;99.90
15288;DHT22;7745;48.708;9.026;2023-05-10T06:49:53;13.30;99.90
15288;DHT22;7745;48.708;9.026;2023-05-10T06:52:21;13.40;99.90
15288;DHT22;7745;48.708;9.026;2023-05-10T06:54:49;13.40;99.90
15288;DHT22;7745;48.708;9.026;2023-05-10T06:57:15;13.50;99.90
15288;DHT22;7745;48.708;9.026;2023-05-10T06:59:43;13.60;99.90
15288;DHT22;7745;48.708;9.026;2023-05-10T07:02:10;13.70;99.90
15288;DHT22;7745;48.708;9.026;2023-05-10T07:04:37;13.80;99.90
15288;DHT22;7745;48.708;9.026;2023-05-10T07:07:16;13.90;99.90
15288;DHT22;7745;48.708;9.026;2023-05-10T07:09:43;14.00;99.90
15288;DHT22;7745;48.708;9.026;2023-05-10T07:12:11;14.10;99.90
15288;DHT22;7745;48.708;9.026;2023-05-10T07:14:38;14.20;99.90
15288;DHT22;7745;48.708;9.026;2023-05-10T07:17:05;14.30;99.90
15288;DHT22;7745;48.708;9.026;2023-05-10T07:19:32;14.40;99.90
15288;DHT22;7745;48.708;9.026;2023-05-10T07:21:59;14.40;99.90
15288;DHT22;7745;48.708;9.026;2023-05-10T07:24:25;14.60;99.90
15288;DHT22;7745;48.708;9.026;2023-05-10T07:26:52;14.70;99.90
15288;DHT22;7745;48.708;9.026;2023-05-10T07:29:20;14.60;99.90
15288;DHT22;7745;48.708;9.026;2023-05-10T07:31:47;14.70;99.90
15288;DHT22;7745;48.708;9.026;2023-05-10T07:34:14;14.90;99.90
15288;DHT22;7745;48.708;9.026;2023-05-10T07:36:40;14.70;99.90
15288;DHT22;7745;48.708;9.026;2023-05-10T07:39:07;14.70;99.90
15288;DHT22;7745;48.708;9.026;2023-05-10T07:41:34;14.70;99.90
15288;DHT22;7745;48.708;9.026;2023-05-10T07:44:03;14.80;99.90
15288;DHT22;7745;48.708;9.026;2023-05-10T07:46:31;14.70;99.90
15288;DHT22;7745;48.708;9.026;2023-05-10T07:48:58;14.70;99.90
15288;DHT22;7745;48.708;9.026;2023-05-10T07:51:25;14.60;99.90
15288;DHT22;7745;48.708;9.026;2023-05-10T07:53:53;14.60;99.90
15288;DHT22;7745;48.708;9.026;2023-05-10T07:56:22;14.60;99.90
15288;DHT22;7745;48.708;9.026;2023-05-10T07:58:50;14.70;99.90
15288;DHT22;7745;48.708;9.026;2023-05-10T08:01:17;14.70;99.90
15288;DHT22;7745;48.708;9.026;2023-05-10T08:03:45;14.80;99.90
15288;DHT22;7745;48.708;9.026;2023-05-10T08:06:12;14.80;99.90
15288;DHT22;7745;48.708;9.026;2023-05-10T08:08:40;14.90;99.90
15288;DHT22;7745;48.708;9.026;2023-05-10T08:11:07;14.90;99.90
15288;DHT22;7745;48.708;9.026;2023-05-10T08:13:34;14.90;99.90
15288;DHT22;7745;48.708;9.026;2023-05-10T08:16:00;14.90;99.90
15288;DHT22;7745;48.708;9.026;2023-05-10T08:18:27;14.80;99.90
15288;DHT22;7745;48.708;9.026;2023-05-10T08:20:56;14.90;99.90
15288;DHT22;7745;48.708;9.026;2023-05-10T08:23:22;14.80;99.90
15288;DHT22;7745;48.708;9.026;2023-05-10T08:25:49;14.90;99.90
15288;DHT22;7745;48.708;9.026;2023-05-10T08:28:16;14.90;99.90
15288;DHT22;7745;48.708;9.026;2023-05-10T08:30:42;14.90;99.90
15288;DHT22;7745;48.708;9.026;2023-05-10T08:33:09;15.00;99.90
15288;DHT22;7745;48.708;9.026;2023-05-10T08:35:36;15.10;99.90
15288;DHT22;7745;48.708;9.026;2023-05-10T08:38:04;15.10;99.90
15288;DHT22;7745;48.708;9.026;2023-05-10T08:40:31;15.10;99.90
15288;DHT22;7745;48.708;9.026;2023-05-10T08:43:04;15.00;99.90
15288;DHT22;7745;48.708;9.026;2023-05-10T08:45:33;15.10;99.90
15288;DHT22;7745;48.708;9.026;2023-05-10T08:48:05;15.00;99.90
15288;DHT22;7745;48.708;9.026;2023-05-10T08:50:32;15.20;99.90
15288;DHT22;7745;48.708;9.026;2023-05-10T08:53:00;15.30;99.90
15288;DHT22;7745;48.708;9.026;2023-05-10T08:55:32;15.40;99.90
15288;DHT22;7745;48.708;9.026;2023-05-10T08:57:59;15.40;99.90
15288;DHT22;7745;48.708;9.026;2023-05-10T09:00:26;15.30;99.90
15288;DHT22;7745;48.708;9.026;2023-05-10T09:02:53;15.30;99.90
15288;DHT22;7745;48.708;9.026;2023-05-10T09:05:20;15.40;99.90
15288;DHT22;7745;48.708;9.026;2023-05-10T09:07:47;15.40;99.90
15288;DHT22;7745;48.708;9.026;2023-05-10T09:10:14;15.50;99.90
15288;DHT22;7745;48.708;9.026;2023-05-10T09:12:43;15.50;99.90
15288;DHT22;7745;48.708;9.026;2023-05-10T09:15:11;15.60;99.90
15288;DHT22;7745;48.708;9.026;2023-05-10T09:17:40;15.50;99.90
15288;DHT22;7745;48.708;9.026;2023-05-10T09:20:07;15.50;99.90
15288;DHT22;7745;48.708;9.026;2023-05-10T09:22:34;15.50;99.90
15288;DHT22;7745;48.708;9.026;2023-05-10T09:25:06;15.60;99.90
15288;DHT22;7745;48.708;9.026;2023-05-10T09:27:33;15.70;99.90
15288;DHT22;7745;48.708;9.026;2023-05-10T09:30:01;15.80;99.90
15288;DHT22;7745;48.708;9.026;2023-05-10T09:32:37;16.00;99.90
15288;DHT22;7745;48.708;9.026;2023-05-10T09:35:08;15.90;99.90
15288;DHT22;7745;48.708;9.026;2023-05-10T09:37:35;16.00;99.90
15288;DHT22;7745;48.708;9.026;2023-05-10T09:40:05;16.10;99.90
15288;DHT22;7745;48.708;9.026;2023-05-10T09:42:33;16.10;99.90
15288;DHT22;7745;48.708;9.026;2023-05-10T09:45:02;16.30;99.90
15288;DHT22;7745;48.708;9.026;2023-05-10T09:47:31;16.40;99.90
15288;DHT22;7745;48.708;9.026;2023-05-10T09:49:59;16.80;99.90
15288;DHT22;7745;48.708;9.026;2023-05-10T09:52:29;16.80;99.90
15288;DHT22;7745;48.708;9.026;2023-05-10T09:57:31;16.70;99.90
15288;DHT22;7745;48.708;9.026;2023-05-10T10:00:01;16.90;99.90
15288;DHT22;7745;48.708;9.026;2023-05-10T10:02:31;16.90;99.90
15288;DHT22;7745;48.708;9.026;2023-05-10T10:05:00;17.00;99.90
15288;DHT22;7745;48.708;9.026;2023-05-10T10:07:28;17.10;99.90
15288;DHT22;7745;48.708;9.026;2023-05-10T10:09:55;17.10;99.90
15288;DHT22;7745;48.708;9.026;2023-05-10T10:12:22;17.20;99.90
15288;DHT22;7745;48.708;9.026;2023-05-10T10:14:48;17.30;99.90
15288;DHT22;7745;48.708;9.026;2023-05-10T10:17:17;17.30;99.90
15288;DHT22;7745;48.708;9.026;2023-05-10T10:19:45;17.40;99.90
15288;DHT22;7745;48.708;9.026;2023-05-10T10:22:13;17.50;99.90
15288;DHT22;7745;48.708;9.026;2023-05-10T10:24:41;17.50;99.90
15288;DHT22;7745;48.708;9.026;2023-05-10T10:27:14;17.50;99.90
15288;DHT22;7745;48.708;9.026;2023-05-10T10:29:49;17.50;99.90
15288;DHT22;7745;48.708;9.026;2023-05-10T10:32:26;17.60;99.90
15288;DHT22;7745;48.708;9.026;2023-05-10T10:34:54;17.60;99.90
15288;DHT22;7745;48.708;9.026;2023-05-10T10:37:22;17.70;99.90
15288;DHT22;7745;48.708;9.026;2023-05-10T10:39:49;17.70;99.90
15288;DHT22;7745;48.708;9.026;2023-05-10T10:42:43;17.60;99.90
15288;DHT22;7745;48.708;9.026;2023-05-10T10:45:13;17.40;99.90
15288;DHT22;7745;48.708;9.026;2023-05-10T10:47:41;16.90;99.90
15288;DHT22;7745;48.708;9.026;2023-05-10T10:50:09;16.50;99.90
15288;DHT22;7745;48.708;9.026;2023-05-10T10:52:39;16.20;99.90
15288;DHT22;7745;48.708;9.026;2023-05-10T10:55:08;16.00;99.90
15288;DHT22;7745;48.708;9.026;2023-05-10T10:57:48;15.60;99.90
15288;DHT22;7745;48.708;9.026;2023-05-10T11:00:21;15.50;99.90
15288;DHT22;7745;48.708;9.026;2023-05-10T11:02:51;15.10;99.90
15288;DHT22;7745;48.708;9.026;2023-05-10T11:08:17;14.60;99.90
15288;DHT22;7745;48.708;9.026;2023-05-10T11:11:08;14.70;99.90
15288;DHT22;7745;48.708;9.026;2023-05-10T11:13:39;14.90;99.90
15288;DHT22;7745;48.708;9.026;2023-05-10T11:16:16;15.00;99.90
15288;DHT22;7745;48.708;9.026;2023-05-10T11:18:57;15.00;99.90
15288;DHT22;7745;48.708;9.026;2023-05-10T11:21:25;15.20;99.90
15288;DHT22;7745;48.708;9.026;2023-05-10T11:23:53;15.20;99.90
15288;DHT22;7745;48.708;9.026;2023-05-10T11:26:23;15.20;99.90
15288;DHT22;7745;48.708;9.026;2023-05-10T11:28:53;15.20;99.90
15288;DHT22;7745;48.708;9.026;2023-05-10T11:31:22;15.40;99.90
15288;DHT22;7745;48.708;9.026;2023-05-10T11:33:54;15.50;99.90
15288;DHT22;7745;48.708;9.026;2023-05-10T11:36:23;15.60;99.90
15288;DHT22;7745;48.708;9.026;2023-05-10T11:38:51;15.70;99.90
15288;DHT22;7745;48.708;9.026;2023-05-10T11:41:18;15.60;99.90
15288;DHT22;7745;48.708;9.026;2023-05-10T11:43:49;15.60;99.90
15288;DHT22;7745;48.708;9.026;2023-05-10T11:46:19;15.60;99.90
15288;DHT22;7745;48.708;9.026;2023-05-10T11:48:47;15.70;99.90
15288;DHT22;7745;48.708;9.026;2023-05-10T11:51:20;16.00;99.90
15288;DHT22;7745;48.708;9.026;2023-05-10T11:53:47;15.90;99.90
15288;DHT22;7745;48.708;9.026;2023-05-10T11:56:14;16.00;99.90
15288;DHT22;7745;48.708;9.026;2023-05-10T11:58:40;16.20;99.90
15288;DHT22;7745;48.708;9.026;2023-05-10T12:01:09;16.30;99.90
15288;DHT22;7745;48.708;9.026;2023-05-10T12:03:36;16.40;99.90
15288;DHT22;7745;48.708;9.026;2023-05-10T12:06:04;16.70;99.90
15288;DHT22;7745;48.708;9.026;2023-05-10T12:08:32;16.70;99.90
15288;DHT22;7745;48.708;9.026;2023-05-10T12:11:06;16.90;99.90
15288;DHT22;7745;48.708;9.026;2023-05-10T12:13:37;16.80;99.90
15288;DHT22;7745;48.708;9.026;2023-05-10T12:16:13;16.80;99.90
15288;DHT22;7745;48.708;9.026;2023-05-10T12:18:40;16.80;99.90
15288;DHT22;7745;48.708;9.026;2023-05-10T12:21:09;16.60;99.90
15288;DHT22;7745;48.708;9.026;2023-05-10T12:23:38;16.50;99.90
15288;DHT22;7745;48.708;9.026;2023-05-10T12:26:06;16.40;99.90
15288;DHT22;7745;48.708;9.026;2023-05-10T12:28:35;16.30;99.90
15288;DHT22;7745;48.708;9.026;2023-05-10T12:31:03;16.10;99.90
15288;DHT22;7745;48.708;9.026;2023-05-10T12:33:36;16.00;99.90
15288;DHT22;7745;48.708;9.026;2023-05-10T12:36:05;15.90;99.90
15288;DHT22;7745;48.708;9.026;2023-05-10T12:38:34;15.80;99.90
15288;DHT22;7745;48.708;9.026;2023-05-10T12:41:05;15.90;99.90
15288;DHT22;7745;48.708;9.026;2023-05-10T12:43:32;15.90;99.90
15288;DHT22;7745;48.708;9.026;2023-05-10T12:46:04;16.00;99.90
15288;DHT22;7745;48.708;9.026;2023-05-10T12:48:31;16.10;99.90
15288;DHT22;7745;48.708;9.026;2023-05-10T12:50:59;16.10;99.90
15288;DHT22;7745;48.708;9.026;2023-05-10T12:53:26;16.20;99.90
15288;DHT22;7745;48.708;9.026;2023-05-10T12:55:54;16.10;99.90
15288;DHT22;7745;48.708;9.026;2023-05-10T12:58:30;16.30;99.90
15288;DHT22;7745;48.708;9.026;2023-05-10T13:01:11;16.40;99.90
15288;DHT22;7745;48.708;9.026;2023-05-10T13:03:40;16.40;99.90
15288;DHT22;7745;48.708;9.026;2023-05-10T13:06:08;16.50;99.90
15288;DHT22;7745;48.708;9.026;2023-05-10T13:08:35;16.60;99.90
15288;DHT22;7745;48.708;9.026;2023-05-10T13:11:02;16.80;99.90
15288;DHT22;7745;48.708;9.026;2023-05-10T13:13:32;16.80;99.90
15288;DHT22;7745;48.708;9.026;2023-05-10T13:15:59;16.80;99.90
15288;DHT22;7745;48.708;9.026;2023-05-10T13:18:26;16.80;99.90
15288;DHT22;7745;48.708;9.026;2023-05-10T13:20:53;16.80;99.90
15288;DHT22;7745;48.708;9.026;2023-05-10T13:23:21;16.70;99.90
15288;DHT22;7745;48.708;9.026;2023-05-10T13:25:48;16.70;99.90
15288;DHT22;7745;48.708;9.026;2023-05-10T13:28:15;16.70;99.90
15288;DHT22;7745;48.708;9.026;2023-05-10T13:30:43;16.70;99.90
15288;DHT22;7745;48.708;9.026;2023-05-10T13:33:10;16.70;99.90
15288;DHT22;7745;48.708;9.026;2023-05-10T13:35:36;17.00;99.90
15288;DHT22;7745;48.708;9.026;2023-05-10T13:38:03;16.90;99.90
15288;DHT22;7745;48.708;9.026;2023-05-10T13:40:33;17.00;99.90
15288;DHT22;7745;48.708;9.026;2023-05-10T13:43:00;17.10;99.90
15288;DHT22;7745;48.708;9.026;2023-05-10T13:45:27;17.20;99.90
15288;DHT22;7745;48.708;9.026;2023-05-10T13:47:55;17.50;99.90
15288;DHT22;7745;48.708;9.026;2023-05-10T13:50:22;17.40;99.90
15288;DHT22;7745;48.708;9.026;2023-05-10T13:52:49;17.40;99.90
15288;DHT22;7745;48.708;9.026;2023-05-10T13:55:16;17.50;99.90
15288;DHT22;7745;48.708;9.026;2023-05-10T13:57:42;17.60;99.90
15288;DHT22;7745;48.708;9.026;2023-05-10T14:00:10;17.40;99.90
15288;DHT22;7745;48.708;9.026;2023-05-10T14:02:37;17.30;99.90
15288;DHT22;7745;48.708;9.026;2023-05-10T14:05:05;17.20;99.90
15288;DHT22;7745;48.708;9.026;2023-05-10T14:07:32;17.00;99.90
15288;DHT22;7745;48.708;9.026;2023-05-10T14:10:00;17.00;99.90
15288;DHT22;7745;48.708;9.026;2023-05-10T14:12:27;17.10;99.90
15288;DHT22;7745;48.708;9.026;2023-05-10T14:14:53;17.10;99.90
15288;DHT22;7745;48.708;9.026;2023-05-10T14:17:20;17.00;99.90
15288;DHT22;7745;48.708;9.026;2023-05-10T14:19:47;17.10;99.90
15288;DHT22;7745;48.708;9.026;2023-05-10T14:22:15;17.20;99.90
15288;DHT22;7745;48.708;9.026;2023-05-10T14:24:42;17.20;99.90
15288;DHT22;7745;48.708;9.026;2023-05-10T14:27:12;17.10;99.90
15288;DHT22;7745;48.708;9.026;2023-05-10T15:49:27;17.10;99.90
15288;DHT22;7745;48.708;9.026;2023-05-10T15:51:54;16.90;99.90
15288;DHT22;7745;48.708;9.026;2023-05-10T15:54:21;16.90;99.90
15288;DHT22;7745;48.708;9.026;2023-05-10T15:56:48;17.00;99.90
15288;DHT22;7745;48.708;9.026;2023-05-10T15:59:15;16.90;99.90
15288;DHT22;7745;48.708;9.026;2023-05-10T16:01:41;16.90;99.90
15288;DHT22;7745;48.708;9.026;2023-05-10T16:06:53;16.70;99.90
15288;DHT22;7745;48.708;9.026;2023-05-10T16:09:20;16.70;99.90
15288;DHT22;7745;48.708;9.026;2023-05-10T16:11:47;16.70;99.90
15288;DHT22;7745;48.708;9.026;2023-05-10T16:14:15;16.70;99.90
15288;DHT22;7745;48.708;9.026;2023-05-10T16:16:42;16.50;99.90
15288;DHT22;7745;48.708;9.026;2023-05-10T16:19:09;16.30;99.90
15288;DHT22;7745;48.708;9.026;2023-05-10T16:21:35;16.00;99.90
15288;DHT22;7745;48.708;9.026;2023-05-10T16:24:04;15.90;99.90
15288;DHT22;7745;48.708;9.026;2023-05-10T16:33:37;15.70;99.90
15288;DHT22;7745;48.708;9.026;2023-05-10T16:36:03;15.60;99.90
15288;DHT22;7745;48.708;9.026;2023-05-10T16:38:30;15.60;99.90
15288;DHT22;7745;48.708;9.026;2023-05-10T16:40:57;15.40;99.90
15288;DHT22;7745;48.708;9.026;2023-05-10T16:43:27;15.40;99.90
15288;DHT22;7745;48.708;9.026;2023-05-10T16:45:54;15.40;99.90
15288;DHT22;7745;48.708;9.026;2023-05-10T16:48:21;15.40;99.90
15288;DHT22;7745;48.708;9.026;2023-05-10T16:50:49;15.40;99.90
15288;DHT22;7745;48.708;9.026;2023-05-10T16:53:16;15.30;99.90
15288;DHT22;7745;48.708;9.026;2023-05-10T16:55:43;15.20;99.90
15288;DHT22;7745;48.708;9.026;2023-05-10T16:58:10;15.20;99.90
15288;DHT22;7745;48.708;9.026;2023-05-10T17:00:37;15.20;99.90
15288;DHT22;7745;48.708;9.026;2023-05-10T17:03:03;15.10;99.90
15288;DHT22;7745;48.708;9.026;2023-05-10T17:05:30;15.20;99.90
15288;DHT22;7745;48.708;9.026;2023-05-10T17:07:58;15.10;99.90
15288;DHT22;7745;48.708;9.026;2023-05-10T17:10:25;15.10;99.90
15288;DHT22;7745;48.708;9.026;2023-05-10T17:12:52;15.10;99.90
15288;DHT22;7745;48.708;9.026;2023-05-10T17:15:19;15.10;99.90
15288;DHT22;7745;48.708;9.026;2023-05-10T17:17:46;14.90;99.90
15288;DHT22;7745;48.708;9.026;2023-05-10T17:20:13;15.00;99.90
15288;DHT22;7745;48.708;9.026;2023-05-10T17:22:40;14.90;99.90
15288;DHT22;7745;48.708;9.026;2023-05-10T17:25:09;14.90;99.90
15288;DHT22;7745;48.708;9.026;2023-05-10T17:27:36;14.80;99.90